Time;durP1;ratioP1;P1;durP2;ratioP2;P2;SDS_P1;SDS_P2;PMS_P1;PMS_P2;Temp;Humidity;BMP_temperature;BMP_pressure;BME280_temperature;BME280_humidity;BME280_pressure;Samples;Min_cycle;Max_cycle;Signal;HPM_P1;HPM_P2
2023/08/13 00:02:20;;;;;;;15.10;3.75;;;15.90;99.90;;;;;;5065654;28;20056;-83
2023/08/13 00:04:46;;;;;;;12.65;2.80;;;15.80;99.90;;;;;;5048598;28;20052;-83
2023/08/13 00:07:12;;;;;;;19.13;3.08;;;15.80;99.90;;;;;;5050122;28;20050;-83
2023/08/13 00:09:40;;;;;;;13.88;2.95;;;15.80;99.90;;;;;;5065084;28;20043;-83
2023/08/13 00:12:06;;;;;;;17.38;2.88;;;15.80;99.90;;;;;;5066670;28;20076;-83
2023/08/13 00:14:32;;;;;;;13.48;2.88;;;15.80;99.90;;;;;;5049735;28;20076;-82
2023/08/13 00:16:58;;;;;;;15.50;3.15;;;15.80;99.90;;;;;;5066541;28;20048;-83
2023/08/13 00:19:23;;;;;;;17.83;3.15;;;15.80;99.90;;;;;;5065543;28;20044;-83
2023/08/13 00:21:49;;;;;;;14.30;3.00;;;15.70;99.90;;;;;;5048647;28;20109;-82
2023/08/13 00:24:14;;;;;;;20.45;3.42;;;15.80;99.90;;;;;;5067372;28;20071;-83
2023/08/13 00:26:42;;;;;;;16.73;2.88;;;15.70;99.90;;;;;;5046408;28;20385;-82
2023/08/13 00:29:08;;;;;;;16.67;3.17;;;15.80;99.90;;;;;;5063149;28;20040;-82
2023/08/13 00:31:34;;;;;;;16.25;2.95;;;15.80;99.90;;;;;;5066082;28;20080;-83
2023/08/13 00:34:00;;;;;;;17.00;2.85;;;15.70;99.90;;;;;;5049129;28;20131;-83
2023/08/13 00:36:26;;;;;;;13.60;2.95;;;15.80;99.90;;;;;;5049774;28;20041;-82
2023/08/13 00:38:51;;;;;;;18.77;3.50;;;15.80;99.90;;;;;;5065916;28;20041;-83
2023/08/13 00:41:17;;;;;;;14.68;3.22;;;15.70;99.90;;;;;;5066296;28;20043;-83
2023/08/13 00:43:43;;;;;;;16.88;3.13;;;15.70;99.90;;;;;;5050062;28;20462;-83
2023/08/13 00:46:10;;;;;;;15.75;3.15;;;15.70;99.90;;;;;;5065111;28;20474;-83
2023/08/13 00:48:38;;;;;;;13.25;2.97;;;15.70;99.90;;;;;;5065303;28;20040;-83
2023/08/13 00:51:05;;;;;;;12.80;3.17;;;15.70;99.90;;;;;;5049370;28;20044;-83
2023/08/13 00:53:31;;;;;;;17.75;3.72;;;15.70;99.90;;;;;;5066731;28;20055;-83
2023/08/13 00:55:57;;;;;;;14.00;2.92;;;15.70;99.90;;;;;;5064802;28;20384;-83
2023/08/13 00:58:23;;;;;;;14.05;3.28;;;15.70;99.90;;;;;;5065760;28;20042;-83
2023/08/13 01:00:49;;;;;;;12.05;3.50;;;15.60;99.90;;;;;;5065236;28;20052;-83
2023/08/13 01:03:15;;;;;;;10.82;2.67;;;15.60;99.90;;;;;;5065157;28;20044;-83
2023/08/13 01:06:03;;;;;;;13.43;3.40;;;15.60;99.90;;;;;;5065099;28;20044;-83
2023/08/13 01:08:53;;;;;;;12.18;2.67;;;15.60;99.90;;;;;;5049485;28;20039;-83
2023/08/13 01:11:48;;;;;;;16.52;3.05;;;15.60;99.90;;;;;;5066208;28;20041;-83
2023/08/13 01:14:35;;;;;;;28.05;3.78;;;15.60;99.90;;;;;;5060763;28;20056;-82
2023/08/13 01:17:03;;;;;;;15.73;3.33;;;15.70;99.90;;;;;;5064554;28;20049;-83
2023/08/13 01:19:29;;;;;;;14.93;3.67;;;15.70;99.90;;;;;;5065285;28;20120;-83
2023/08/13 01:21:54;;;;;;;17.65;3.38;;;15.70;99.90;;;;;;5047654;28;20190;-83
2023/08/13 01:24:21;;;;;;;18.40;3.15;;;15.70;99.90;;;;;;5066102;28;20106;-83
2023/08/13 01:26:59;;;;;;;18.52;3.90;;;15.60;99.90;;;;;;5047918;28;20476;-83
2023/08/13 01:29:55;;;;;;;15.70;3.47;;;15.70;99.90;;;;;;5049535;28;20123;-83
2023/08/13 01:32:28;;;;;;;17.13;3.47;;;15.70;99.90;;;;;;5067746;28;20062;-83
2023/08/13 01:34:55;;;;;;;16.95;3.83;;;15.70;99.90;;;;;;5051277;28;20051;-83
2023/08/13 01:37:21;;;;;;;16.52;4.15;;;15.60;99.90;;;;;;5070070;28;20044;-83
2023/08/13 01:39:48;;;;;;;15.90;3.40;;;15.60;99.90;;;;;;5068990;28;20067;-83
2023/08/13 01:42:13;;;;;;;21.80;3.78;;;15.60;99.90;;;;;;5068288;28;20059;-83
2023/08/13 01:44:39;;;;;;;17.08;3.03;;;15.60;99.90;;;;;;5068155;28;20456;-83
2023/08/13 01:47:05;;;;;;;18.15;3.25;;;15.70;99.90;;;;;;5069661;28;20117;-84
2023/08/13 01:49:32;;;;;;;18.55;3.35;;;15.70;99.90;;;;;;5067954;28;20086;-83
2023/08/13 01:51:58;;;;;;;17.67;3.05;;;15.60;99.90;;;;;;5066574;28;20045;-83
2023/08/13 01:54:24;;;;;;;16.00;3.33;;;15.60;99.90;;;;;;5071673;28;20044;-83
2023/08/13 01:56:49;;;;;;;21.70;3.67;;;15.60;99.90;;;;;;5067918;28;20047;-83
2023/08/13 01:59:16;;;;;;;17.60;3.53;;;15.60;99.90;;;;;;5051745;28;20041;-83
2023/08/13 02:01:42;;;;;;;19.60;3.75;;;15.60;99.90;;;;;;5066482;28;20044;-83
2023/08/13 02:04:08;;;;;;;16.42;3.15;;;15.60;99.90;;;;;;5068040;28;20055;-83
2023/08/13 02:06:35;;;;;;;17.45;3.25;;;15.60;99.90;;;;;;5051283;28;20067;-83
2023/08/13 02:09:01;;;;;;;15.73;3.55;;;15.60;99.90;;;;;;5068413;28;20119;-83
2023/08/13 02:11:27;;;;;;;23.55;4.25;;;15.50;99.90;;;;;;5051096;28;20052;-83
2023/08/13 02:13:53;;;;;;;17.92;3.65;;;15.50;99.90;;;;;;5069118;28;20044;-83
2023/08/13 02:16:18;;;;;;;17.25;3.42;;;15.50;99.90;;;;;;5066618;28;20417;-83
2023/08/13 02:18:44;;;;;;;22.05;4.35;;;15.50;99.90;;;;;;5051120;28;20055;-82
2023/08/13 02:21:10;;;;;;;18.00;3.60;;;15.50;99.90;;;;;;5050950;28;20067;-83
2023/08/13 02:23:35;;;;;;;17.33;3.33;;;15.50;99.90;;;;;;5067863;28;20040;-83
2023/08/13 02:26:01;;;;;;;17.30;3.45;;;15.50;99.90;;;;;;5067124;28;20032;-83
2023/08/13 02:28:27;;;;;;;16.00;3.58;;;15.50;99.90;;;;;;5068717;28;20082;-83
2023/08/13 02:30:52;;;;;;;17.83;3.58;;;15.50;99.90;;;;;;5065950;28;20393;-83
2023/08/13 02:33:18;;;;;;;18.45;3.15;;;15.50;99.90;;;;;;5069742;28;20043;-83
2023/08/13 02:35:44;;;;;;;16.83;3.50;;;15.50;99.90;;;;;;5067308;28;20162;-83
2023/08/13 02:38:09;;;;;;;19.25;3.25;;;15.50;99.90;;;;;;5050300;28;20040;-83
2023/08/13 02:40:36;;;;;;;18.38;3.53;;;15.50;99.90;;;;;;5067649;28;20125;-83
2023/08/13 02:43:02;;;;;;;19.02;4.03;;;15.50;99.90;;;;;;5068138;28;20041;-83
2023/08/13 02:45:28;;;;;;;15.88;3.38;;;15.50;99.90;;;;;;5066413;28;20040;-83
2023/08/13 02:47:56;;;;;;;19.80;4.72;;;15.50;99.90;;;;;;5066700;28;20067;-83
2023/08/13 02:50:22;;;;;;;15.98;3.58;;;15.40;99.90;;;;;;5050688;28;20045;-84
2023/08/13 02:52:48;;;;;;;19.40;3.85;;;15.50;99.90;;;;;;5049980;28;20040;-83
2023/08/13 02:55:13;;;;;;;20.45;4.32;;;15.40;99.90;;;;;;5050611;28;20442;-84
2023/08/13 02:57:39;;;;;;;18.63;4.55;;;15.40;99.90;;;;;;5067107;28;20117;-83
2023/08/13 03:00:05;;;;;;;22.15;4.10;;;15.40;99.90;;;;;;5050176;28;20112;-84
2023/08/13 03:02:31;;;;;;;22.85;3.65;;;15.40;99.90;;;;;;5044819;28;20088;-83
2023/08/13 03:04:57;;;;;;;20.65;4.28;;;15.40;99.90;;;;;;5068084;28;20484;-84
2023/08/13 03:07:23;;;;;;;18.92;4.20;;;15.40;99.90;;;;;;5061245;28;20037;-83
2023/08/13 03:09:49;;;;;;;19.80;4.10;;;15.40;99.90;;;;;;5066755;28;20048;-84
2023/08/13 03:12:15;;;;;;;20.00;3.92;;;15.40;99.90;;;;;;5067327;28;20048;-84
2023/08/13 03:14:41;;;;;;;19.88;4.32;;;15.40;99.90;;;;;;5065859;28;20064;-84
2023/08/13 03:17:07;;;;;;;23.10;4.18;;;15.40;99.90;;;;;;5066612;28;20048;-84
2023/08/13 03:19:33;;;;;;;19.40;3.50;;;15.40;99.90;;;;;;5049544;28;20094;-84
2023/08/13 03:21:59;;;;;;;23.63;4.30;;;15.30;99.90;;;;;;5061781;28;20040;-84
2023/08/13 03:24:25;;;;;;;20.13;4.45;;;15.30;99.90;;;;;;5070198;28;20507;-84
2023/08/13 03:26:50;;;;;;;21.75;4.70;;;15.30;99.90;;;;;;5065124;28;20044;-83
2023/08/13 03:29:16;;;;;;;16.02;3.65;;;15.30;99.90;;;;;;5074544;28;20066;-83
2023/08/13 03:31:42;;;;;;;21.58;4.53;;;15.30;99.90;;;;;;5059313;28;20594;-83
2023/08/13 03:34:07;;;;;;;23.90;4.32;;;15.30;99.90;;;;;;5075561;28;20044;-83
2023/08/13 03:36:33;;;;;;;22.23;4.15;;;15.30;99.90;;;;;;5068056;28;20048;-84
2023/08/13 03:38:59;;;;;;;19.27;4.18;;;15.20;99.90;;;;;;5082017;28;20456;-84
2023/08/13 03:41:24;;;;;;;15.60;4.35;;;15.30;99.90;;;;;;5084037;28;20044;-84
2023/08/13 03:43:50;;;;;;;20.33;3.95;;;15.30;99.90;;;;;;5056372;28;20476;-84
2023/08/13 03:46:16;;;;;;;19.25;3.38;;;15.20;99.90;;;;;;5064519;28;20032;-84
2023/08/13 03:48:41;;;;;;;23.42;4.25;;;15.20;99.90;;;;;;5078490;28;20032;-84
2023/08/13 03:51:07;;;;;;;21.15;4.25;;;15.20;99.90;;;;;;5056497;28;20404;-84
2023/08/13 03:53:33;;;;;;;22.45;4.07;;;15.20;99.90;;;;;;5082940;28;20045;-83
2023/08/13 03:55:58;;;;;;;21.08;4.13;;;15.20;99.90;;;;;;5064255;28;20071;-83
2023/08/13 03:58:25;;;;;;;22.30;4.18;;;15.20;99.90;;;;;;5079594;28;20520;-83
2023/08/13 04:00:50;;;;;;;26.00;4.97;;;15.20;99.90;;;;;;5051637;28;20528;-83
2023/08/13 04:03:16;;;;;;;21.30;4.22;;;15.20;99.90;;;;;;5063829;28;20051;-83
2023/08/13 04:05:42;;;;;;;20.77;4.47;;;15.20;99.90;;;;;;5080857;28;20052;-82
2023/08/13 04:08:07;;;;;;;21.85;4.25;;;15.20;99.90;;;;;;5062906;28;20047;-83
2023/08/13 04:10:33;;;;;;;15.77;3.80;;;15.20;99.90;;;;;;5048336;28;20141;-83
2023/08/13 04:13:02;;;;;;;22.27;4.47;;;15.30;99.90;;;;;;5056800;28;20047;-82
2023/08/13 04:15:28;;;;;;;21.65;3.97;;;15.30;99.90;;;;;;5048888;28;20049;-83
2023/08/13 04:17:54;;;;;;;21.10;4.20;;;15.30;99.90;;;;;;5080925;28;20063;-83
2023/08/13 04:20:20;;;;;;;20.98;4.50;;;15.30;99.90;;;;;;5065929;28;20052;-82
2023/08/13 04:22:46;;;;;;;17.83;3.75;;;15.40;99.90;;;;;;5064939;28;20100;-83
2023/08/13 04:25:11;;;;;;;18.35;3.45;;;15.40;99.90;;;;;;5064116;28;20131;-83
2023/08/13 04:27:37;;;;;;;14.38;3.42;;;15.40;99.90;;;;;;5050245;28;20114;-82
2023/08/13 04:30:04;;;;;;;22.50;4.22;;;15.50;99.90;;;;;;5048561;28;20055;-83
2023/08/13 04:32:31;;;;;;;19.77;4.03;;;15.50;99.90;;;;;;5046196;28;20165;-83
2023/08/13 04:34:58;;;;;;;20.92;4.47;;;15.50;99.90;;;;;;5076786;28;20563;-83
2023/08/13 04:37:23;;;;;;;20.50;3.83;;;15.60;99.90;;;;;;5047430;28;20048;-83
2023/08/13 04:39:49;;;;;;;17.90;3.65;;;15.60;99.90;;;;;;5066022;28;20045;-83
2023/08/13 04:42:15;;;;;;;18.52;3.88;;;15.70;99.90;;;;;;5062225;28;20129;-84
2023/08/13 04:44:40;;;;;;;21.95;4.30;;;15.70;99.90;;;;;;5042616;28;20174;-84
2023/08/13 04:47:06;;;;;;;18.25;3.65;;;15.80;99.90;;;;;;5068996;28;20128;-83
2023/08/13 04:49:32;;;;;;;16.17;3.78;;;15.80;99.90;;;;;;5032347;28;20045;-83
2023/08/13 04:51:57;;;;;;;21.30;3.92;;;15.80;99.90;;;;;;5054822;28;20044;-83
2023/08/13 04:54:23;;;;;;;20.38;3.70;;;15.90;99.90;;;;;;5067312;28;20056;-84
2023/08/13 04:56:49;;;;;;;18.33;3.63;;;15.90;99.90;;;;;;5055053;28;20059;-83
2023/08/13 04:59:14;;;;;;;18.85;4.13;;;15.90;99.90;;;;;;5064991;28;20045;-83
2023/08/13 05:01:40;;;;;;;20.17;3.30;;;15.90;99.90;;;;;;5035763;28;20052;-83
2023/08/13 05:04:06;;;;;;;21.40;4.15;;;15.90;99.90;;;;;;5064665;28;20392;-83
2023/08/13 05:06:31;;;;;;;21.67;4.15;;;15.90;99.90;;;;;;5052279;28;20033;-82
2023/08/13 05:08:57;;;;;;;17.05;3.78;;;16.00;99.90;;;;;;5043893;28;20041;-83
2023/08/13 05:11:23;;;;;;;14.80;3.75;;;16.00;99.90;;;;;;5051536;28;20036;-83
2023/08/13 05:13:49;;;;;;;19.33;3.20;;;16.00;99.90;;;;;;5068563;28;20040;-83
2023/08/13 05:16:14;;;;;;;19.17;4.22;;;16.10;99.90;;;;;;5059500;28;20047;-83
2023/08/13 05:18:40;;;;;;;20.45;4.18;;;16.10;99.90;;;;;;5073478;28;20151;-83
2023/08/13 05:21:06;;;;;;;20.65;4.00;;;16.10;99.90;;;;;;5057226;28;20080;-83
2023/08/13 05:23:32;;;;;;;16.98;3.40;;;16.20;99.90;;;;;;5060931;28;20098;-83
2023/08/13 05:25:57;;;;;;;15.38;3.40;;;16.20;99.90;;;;;;5066443;28;20083;-83
2023/08/13 05:28:23;;;;;;;15.70;4.10;;;16.20;99.90;;;;;;5069294;28;20043;-83
2023/08/13 05:30:49;;;;;;;20.77;3.28;;;16.30;99.90;;;;;;5066146;28;20048;-83
2023/08/13 05:33:14;;;;;;;23.65;4.00;;;16.30;99.90;;;;;;5051729;28;20037;-86
2023/08/13 05:35:40;;;;;;;20.23;3.83;;;16.30;99.90;;;;;;5083420;28;20036;-83
2023/08/13 05:38:06;;;;;;;20.67;3.70;;;16.30;99.90;;;;;;5060476;28;20460;-83
2023/08/13 05:40:31;;;;;;;15.23;3.63;;;16.30;99.90;;;;;;5078728;28;20043;-85
2023/08/13 05:42:57;;;;;;;18.05;3.70;;;16.40;99.90;;;;;;5075496;28;20036;-84
2023/08/13 05:45:23;;;;;;;21.20;4.57;;;16.40;99.90;;;;;;5055783;28;20445;-84
2023/08/13 05:47:49;;;;;;;14.35;3.70;;;16.40;99.90;;;;;;5067378;28;20040;-84
2023/08/13 05:50:15;;;;;;;15.75;3.72;;;16.40;99.90;;;;;;5071041;28;20487;-85
2023/08/13 05:52:40;;;;;;;19.85;3.53;;;16.40;99.90;;;;;;5052051;28;20123;-84
2023/08/13 05:55:07;;;;;;;19.08;3.95;;;16.50;99.90;;;;;;5052201;28;20047;-85
2023/08/13 05:57:33;;;;;;;17.20;4.32;;;16.50;99.90;;;;;;5074865;28;20083;-85
2023/08/13 05:59:59;;;;;;;18.05;4.07;;;16.50;99.90;;;;;;5055763;28;20070;-85
2023/08/13 06:02:25;;;;;;;20.65;3.90;;;16.60;99.90;;;;;;5067881;28;20048;-85
2023/08/13 06:04:51;;;;;;;19.00;3.90;;;16.60;99.90;;;;;;5068470;28;20758;-83
2023/08/13 06:07:16;;;;;;;17.67;3.83;;;16.60;99.90;;;;;;5053266;28;20048;-83
2023/08/13 06:09:42;;;;;;;28.45;4.38;;;16.60;99.90;;;;;;5063774;28;20037;-83
2023/08/13 06:12:08;;;;;;;14.02;3.38;;;16.60;99.90;;;;;;5068663;28;20044;-83
2023/08/13 06:14:34;;;;;;;18.88;4.50;;;16.50;99.90;;;;;;5072792;28;20050;-84
2023/08/13 06:17:00;;;;;;;18.38;4.10;;;16.50;99.90;;;;;;5049439;28;20040;-84
2023/08/13 06:19:25;;;;;;;17.80;3.80;;;16.50;99.90;;;;;;5090073;28;20036;-85
2023/08/13 06:21:51;;;;;;;18.25;4.75;;;16.50;99.90;;;;;;5054405;28;20793;-85
2023/08/13 06:24:16;;;;;;;24.20;4.10;;;16.50;99.90;;;;;;5049869;28;20063;-84
2023/08/13 06:26:42;;;;;;;21.33;4.10;;;16.40;99.90;;;;;;5064608;28;20098;-84
2023/08/13 06:29:08;;;;;;;18.83;3.78;;;16.40;99.90;;;;;;5072169;28;20523;-85
2023/08/13 06:31:35;;;;;;;19.25;4.22;;;16.40;99.90;;;;;;5065531;28;20403;-85
2023/08/13 06:34:01;;;;;;;18.00;4.53;;;16.50;99.90;;;;;;5062054;28;20127;-85
2023/08/13 06:36:27;;;;;;;16.02;4.13;;;16.60;99.90;;;;;;5067077;28;20135;-85
2023/08/13 06:38:52;;;;;;;16.25;4.00;;;16.80;99.90;;;;;;5047682;28;20048;-85
2023/08/13 06:41:18;;;;;;;15.30;3.63;;;17.00;99.90;;;;;;5041738;28;20476;-85
2023/08/13 06:43:44;;;;;;;19.48;4.50;;;17.10;99.90;;;;;;5064700;28;20029;-86
2023/08/13 06:46:10;;;;;;;22.27;5.03;;;17.30;99.90;;;;;;5069080;28;20119;-85
2023/08/13 06:48:38;;;;;;;18.42;4.13;;;17.50;99.90;;;;;;5067465;28;20068;-87
2023/08/13 06:51:04;;;;;;;18.80;4.40;;;17.70;99.90;;;;;;5077439;28;20028;-85
2023/08/13 06:53:29;;;;;;;15.50;3.60;;;17.80;99.90;;;;;;5062755;28;20051;-85
2023/08/13 06:55:55;;;;;;;13.50;3.60;;;17.90;99.90;;;;;;5051120;28;20052;-86
2023/08/13 06:58:21;;;;;;;21.20;4.05;;;17.90;99.90;;;;;;5068083;28;20066;-85
2023/08/13 07:00:47;;;;;;;16.77;3.92;;;17.80;99.90;;;;;;5062425;28;20120;-84
2023/08/13 07:03:12;;;;;;;17.73;4.15;;;17.70;99.90;;;;;;5073438;28;20052;-86
2023/08/13 07:05:40;;;;;;;19.10;4.10;;;17.60;99.90;;;;;;5060526;28;20044;-86
2023/08/13 07:08:06;;;;;;;16.95;3.92;;;17.70;99.90;;;;;;5050114;28;20045;-85
2023/08/13 07:10:32;;;;;;;16.38;3.92;;;17.60;99.90;;;;;;5062517;28;20044;-86
2023/08/13 07:12:58;;;;;;;21.52;3.88;;;17.60;99.90;;;;;;5046398;28;20043;-85
2023/08/13 07:15:24;;;;;;;17.30;4.03;;;17.70;99.90;;;;;;5065999;28;20045;-86
2023/08/13 07:17:50;;;;;;;14.68;3.67;;;17.90;99.90;;;;;;5054208;28;20068;-86
2023/08/13 07:20:16;;;;;;;17.92;4.43;;;18.00;99.90;;;;;;5052512;28;20075;-85
2023/08/13 07:22:43;;;;;;;15.90;3.58;;;18.20;99.90;;;;;;5063877;28;20075;-85
2023/08/13 07:25:11;;;;;;;20.10;3.95;;;18.30;99.90;;;;;;5055803;28;20037;-86
2023/08/13 07:27:40;;;;;;;17.48;3.25;;;18.40;99.90;;;;;;5069059;28;20044;-86
2023/08/13 07:30:08;;;;;;;14.02;3.58;;;18.50;99.90;;;;;;5074046;28;20066;-86
2023/08/13 07:32:35;;;;;;;16.17;3.40;;;18.60;99.90;;;;;;5053670;28;20041;-86
2023/08/13 07:35:01;;;;;;;17.40;3.72;;;18.70;99.90;;;;;;5052737;28;20101;-85
2023/08/13 07:37:28;;;;;;;17.77;3.60;;;18.80;99.90;;;;;;5051420;28;20047;-85
2023/08/13 07:39:55;;;;;;;18.48;3.63;;;18.90;99.90;;;;;;5057622;28;20432;-86
2023/08/13 07:42:21;;;;;;;25.58;5.18;;;19.00;99.90;;;;;;5066979;28;20059;-87
2023/08/13 07:44:50;;;;;;;16.63;3.05;;;19.10;99.90;;;;;;5056664;28;20040;-87
2023/08/13 07:47:16;;;;;;;16.13;3.60;;;19.20;99.90;;;;;;5051712;28;20098;-87
2023/08/13 07:49:42;;;;;;;16.63;3.05;;;19.40;99.90;;;;;;5068213;28;20083;-87
2023/08/13 07:52:09;;;;;;;19.83;3.13;;;19.40;99.90;;;;;;5044667;28;20083;-85
2023/08/13 07:54:36;;;;;;;15.25;3.15;;;19.40;99.90;;;;;;5069035;28;20036;-86
2023/08/13 07:57:06;;;;;;;14.60;3.05;;;19.60;99.90;;;;;;5057109;28;20398;-86
2023/08/13 07:59:32;;;;;;;16.02;3.05;;;19.60;99.90;;;;;;5046122;28;20049;-87
2023/08/13 08:01:59;;;;;;;17.27;3.95;;;19.60;99.90;;;;;;5041643;28;20063;-87
2023/08/13 08:04:24;;;;;;;22.38;2.90;;;19.50;99.90;;;;;;5077181;28;20098;-88
2023/08/13 08:06:50;;;;;;;12.80;3.05;;;19.50;99.90;;;;;;5073212;28;20051;-90
2023/08/13 08:09:18;;;;;;;14.68;2.78;;;19.60;99.90;;;;;;5044696;28;20428;-88
2023/08/13 08:11:44;;;;;;;11.70;2.92;;;19.90;99.90;;;;;;5051538;28;20438;-89
2023/08/13 08:14:09;;;;;;;14.95;3.20;;;19.80;99.90;;;;;;5058676;28;20173;-86
2023/08/13 08:16:36;;;;;;;12.15;2.63;;;19.90;99.90;;;;;;5065796;28;20048;-85
2023/08/13 08:19:03;;;;;;;15.35;3.22;;;20.20;99.90;;;;;;5064412;28;20061;-89
2023/08/13 08:21:29;;;;;;;13.68;3.25;;;20.30;99.90;;;;;;5079649;28;20044;-86
2023/08/13 08:23:54;;;;;;;16.05;2.80;;;20.40;99.90;;;;;;5062786;28;20421;-86
2023/08/13 08:26:20;;;;;;;17.73;3.05;;;20.30;99.90;;;;;;5049099;28;20189;-87
2023/08/13 08:28:46;;;;;;;15.27;2.60;;;20.10;99.90;;;;;;5047834;28;20044;-86
2023/08/13 08:31:11;;;;;;;15.57;2.83;;;20.00;99.90;;;;;;5062235;28;20174;-86
2023/08/13 08:33:37;;;;;;;14.73;2.95;;;20.00;99.90;;;;;;5056795;28;20051;-87
2023/08/13 08:36:03;;;;;;;11.75;2.42;;;20.10;99.90;;;;;;5070992;28;20042;-86
2023/08/13 08:38:29;;;;;;;16.58;3.15;;;20.30;99.90;;;;;;5072900;28;20515;-86
2023/08/13 08:40:56;;;;;;;14.10;2.90;;;20.50;99.90;;;;;;5071355;28;20067;-86
2023/08/13 08:43:25;;;;;;;10.30;2.38;;;20.70;99.90;;;;;;5058156;28;20040;-86
2023/08/13 08:45:52;;;;;;;10.25;2.10;;;20.90;99.90;;;;;;5068860;28;20056;-86
2023/08/13 08:48:19;;;;;;;19.27;3.25;;;21.10;99.90;;;;;;5057769;28;20094;-86
2023/08/13 08:50:46;;;;;;;15.95;3.40;;;21.10;99.90;;;;;;5062664;28;20423;-86
2023/08/13 08:53:12;;;;;;;11.32;2.78;;;21.20;99.90;;;;;;5064093;28;20044;-86
2023/08/13 08:55:40;;;;;;;14.55;2.75;;;21.20;99.90;;;;;;5053069;28;20075;-87
2023/08/13 08:58:06;;;;;;;19.20;3.00;;;21.30;99.90;;;;;;5060004;28;20037;-86
2023/08/13 09:00:31;;;;;;;16.63;2.95;;;21.20;99.90;;;;;;5066908;28;20045;-86
2023/08/13 09:02:57;;;;;;;12.80;3.05;;;21.10;99.90;;;;;;5072638;28;20123;-87
2023/08/13 09:05:24;;;;;;;10.93;2.60;;;21.20;99.90;;;;;;5056276;28;20044;-85
2023/08/13 09:07:50;;;;;;;11.07;2.10;;;21.30;99.90;;;;;;5061298;28;20083;-87
2023/08/13 09:10:22;;;;;;;10.48;2.35;;;21.30;99.90;;;;;;5050086;28;20076;-86
2023/08/13 09:12:52;;;;;;;13.98;2.53;;;21.20;99.90;;;;;;5058713;28;20373;-85
2023/08/13 09:15:18;;;;;;;11.70;2.17;;;21.30;99.90;;;;;;5049127;28;20051;-86
2023/08/13 09:17:44;;;;;;;11.48;2.28;;;21.30;99.90;;;;;;5049572;28;20090;-84
2023/08/13 09:20:18;;;;;;;8.63;2.05;;;21.20;99.90;;;;;;5055652;28;20044;-83
2023/08/13 09:22:48;;;;;;;8.77;1.77;;;21.20;99.90;;;;;;5072924;28;20867;-83
2023/08/13 09:25:18;;;;;;;10.02;1.83;;;21.10;99.90;;;;;;5061776;28;20119;-85
2023/08/13 09:27:47;;;;;;;10.43;1.95;;;21.20;99.90;;;;;;5070536;28;20419;-86
2023/08/13 09:30:27;;;;;;;10.88;2.22;;;21.30;99.90;;;;;;5050314;28;20056;-84
2023/08/13 09:32:55;;;;;;;13.23;2.30;;;21.20;99.90;;;;;;5060439;28;20047;-87
2023/08/13 09:35:21;;;;;;;11.50;2.33;;;21.30;99.90;;;;;;5053944;28;20053;-85
2023/08/13 09:37:47;;;;;;;10.43;1.90;;;21.40;99.90;;;;;;5065718;28;20048;-84
2023/08/13 09:40:12;;;;;;;7.00;1.80;;;21.50;99.90;;;;;;5071333;28;20128;-83
2023/08/13 09:42:39;;;;;;;10.55;1.88;;;21.60;99.90;;;;;;5072239;28;20128;-84
2023/08/13 09:45:09;;;;;;;12.35;1.73;;;21.60;99.90;;;;;;5055491;28;20051;-85
2023/08/13 09:47:36;;;;;;;10.68;1.88;;;21.70;99.90;;;;;;5055395;28;20053;-84
2023/08/13 09:50:03;;;;;;;11.15;2.05;;;21.80;99.90;;;;;;5050040;28;20090;-86
2023/08/13 09:52:30;;;;;;;9.35;1.83;;;21.90;99.90;;;;;;5053265;28;20048;-85
2023/08/13 09:55:10;;;;;;;10.27;1.83;;;21.90;99.90;;;;;;5068174;28;20041;-85
2023/08/13 09:57:38;;;;;;;6.57;1.60;;;21.90;99.90;;;;;;5053608;28;20044;-85
2023/08/13 10:00:07;;;;;;;9.50;1.70;;;22.00;99.90;;;;;;5054034;28;20102;-87
2023/08/13 10:02:33;;;;;;;9.40;1.85;;;22.10;99.90;;;;;;5062088;28;20064;-87
2023/08/13 10:05:00;;;;;;;10.25;1.85;;;22.00;99.90;;;;;;5071221;28;20044;-89
2023/08/13 10:07:28;;;;;;;9.40;1.80;;;22.10;99.90;;;;;;5061290;28;20051;-87
2023/08/13 10:09:54;;;;;;;11.40;1.90;;;22.20;99.90;;;;;;5053218;28;20471;-85
2023/08/13 10:12:21;;;;;;;9.43;1.60;;;22.20;99.90;;;;;;5069803;28;20049;-85
2023/08/13 10:14:49;;;;;;;5.70;1.52;;;22.00;99.90;;;;;;5051614;28;20048;-87
2023/08/13 10:17:18;;;;;;;11.63;2.03;;;22.00;99.90;;;;;;5071687;28;20059;-86
2023/08/13 10:19:50;;;;;;;13.57;2.00;;;21.80;99.90;;;;;;5054153;28;20043;-87
2023/08/13 10:22:30;;;;;;;8.27;1.50;;;21.80;99.90;;;;;;5057104;28;20056;-87
2023/08/13 10:24:55;;;;;;;7.72;1.67;;;21.70;99.90;;;;;;5059061;28;20096;-85
2023/08/13 10:27:22;;;;;;;11.00;1.50;;;21.60;99.90;;;;;;5055655;28;20613;-87
2023/08/13 10:29:48;;;;;;;12.98;1.73;;;21.50;99.90;;;;;;5064632;28;20059;-86
2023/08/13 10:32:16;;;;;;;5.03;1.00;;;21.40;99.90;;;;;;5058149;28;20151;-86
2023/08/13 10:34:48;;;;;;;7.70;1.27;;;21.30;99.90;;;;;;5062994;28;20049;-86
2023/08/13 10:37:18;;;;;;;11.07;1.48;;;21.40;99.90;;;;;;5069493;28;20119;-85
2023/08/13 10:40:08;;;;;;;9.13;1.90;;;21.60;99.90;;;;;;5053726;28;20055;-86
2023/08/13 10:42:34;;;;;;;7.10;1.08;;;21.70;99.90;;;;;;5069859;28;20043;-86
2023/08/13 10:45:03;;;;;;;10.98;1.67;;;22.00;99.90;;;;;;5063506;28;20049;-87
2023/08/13 10:47:57;;;;;;;9.25;1.50;;;22.20;99.90;;;;;;5057939;28;20041;-87
2023/08/13 10:50:36;;;;;;;8.07;1.25;;;22.50;99.90;;;;;;5079020;28;20128;-89
2023/08/13 10:53:10;;;;;;;8.27;1.70;;;22.50;99.90;;;;;;5063439;28;20140;-87
2023/08/13 10:55:36;;;;;;;10.88;1.80;;;22.40;99.90;;;;;;5069787;28;20053;-88
2023/08/13 10:58:02;;;;;;;9.00;1.20;;;22.50;99.90;;;;;;5074680;28;20470;-86
2023/08/13 11:00:29;;;;;;;8.27;1.60;;;22.60;99.90;;;;;;5063018;28;20040;-87
2023/08/13 11:03:14;;;;;;;7.82;1.55;;;22.80;99.90;;;;;;5063939;28;20526;-87
2023/08/13 11:05:40;;;;;;;5.97;1.30;;;23.00;99.90;;;;;;5052127;28;20080;-88
2023/08/13 11:08:07;;;;;;;9.27;1.60;;;23.00;99.90;;;;;;5065455;28;20153;-87
2023/08/13 11:10:33;;;;;;;8.07;1.30;;;23.00;99.90;;;;;;5053784;28;20091;-87
2023/08/13 11:13:00;;;;;;;7.25;1.15;;;22.80;99.90;;;;;;5078445;28;20037;-88
2023/08/13 11:15:28;;;;;;;5.97;1.50;;;22.60;99.90;;;;;;5042349;28;20041;-88
2023/08/13 11:17:54;;;;;;;7.20;1.27;;;22.40;99.90;;;;;;5060908;28;20048;-87
2023/08/13 11:20:20;;;;;;;8.63;1.65;;;22.20;99.90;;;;;;5049684;28;20063;-86
2023/08/13 11:22:46;;;;;;;11.25;2.22;;;22.20;99.90;;;;;;5047519;28;20037;-87
2023/08/13 11:25:13;;;;;;;9.23;1.65;;;22.20;99.90;;;;;;5058316;28;20200;-86
2023/08/13 11:27:39;;;;;;;6.68;1.85;;;22.20;99.90;;;;;;5051615;28;20043;-88
2023/08/13 11:30:07;;;;;;;15.57;2.10;;;22.40;99.90;;;;;;5069435;28;20036;-87
2023/08/13 11:32:34;;;;;;;7.57;1.73;;;22.50;99.90;;;;;;5065122;28;20341;-87
2023/08/13 11:35:00;;;;;;;7.60;1.63;;;22.50;99.90;;;;;;5070429;28;20048;-87
2023/08/13 11:37:26;;;;;;;8.85;1.60;;;22.40;99.90;;;;;;5074966;28;20043;-86
2023/08/13 11:39:52;;;;;;;8.55;1.65;;;22.40;99.90;;;;;;5066010;28;20475;-86
2023/08/13 11:42:17;;;;;;;11.52;2.10;;;22.40;99.90;;;;;;5050744;28;20849;-86
2023/08/13 11:44:48;;;;;;;7.97;1.75;;;22.40;99.90;;;;;;5068656;28;20146;-86
2023/08/13 11:47:26;;;;;;;11.15;1.73;;;22.40;99.90;;;;;;5059196;28;20052;-87
2023/08/13 11:49:54;;;;;;;9.13;1.65;;;22.50;99.90;;;;;;5063411;28;20047;-86
2023/08/13 11:52:21;;;;;;;8.00;1.50;;;22.60;99.90;;;;;;5051924;28;20045;-88
2023/08/13 11:54:47;;;;;;;9.23;0.88;;;22.70;99.90;;;;;;5048081;28;20051;-89
2023/08/13 11:57:18;;;;;;;10.68;1.95;;;22.70;99.90;;;;;;5051828;28;20048;-87
2023/08/13 11:59:48;;;;;;;9.20;1.42;;;22.80;99.90;;;;;;5051714;28;20040;-88
2023/08/13 12:02:16;;;;;;;5.35;1.15;;;22.70;99.90;;;;;;5059545;28;20052;-89
2023/08/13 12:04:47;;;;;;;6.93;1.10;;;22.60;99.90;;;;;;5067988;28;20048;-88
2023/08/13 12:07:12;;;;;;;9.10;1.02;;;22.60;99.90;;;;;;5077542;28;20044;-88
2023/08/13 12:09:38;;;;;;;8.32;1.10;;;22.50;99.90;;;;;;5070244;28;20143;-88
2023/08/13 12:12:04;;;;;;;6.45;1.73;;;22.60;99.90;;;;;;5070942;28;20068;-90
2023/08/13 12:14:31;;;;;;;8.73;1.63;;;22.50;99.90;;;;;;5075023;28;20094;-89
2023/08/13 12:16:57;;;;;;;6.75;1.17;;;22.50;99.90;;;;;;5053338;28;20045;-89
2023/08/13 12:19:22;;;;;;;6.45;1.20;;;22.50;99.90;;;;;;5052035;28;20045;-88
2023/08/13 12:21:48;;;;;;;8.20;1.45;;;22.50;99.90;;;;;;5053411;28;20476;-89
2023/08/13 12:24:14;;;;;;;5.28;1.15;;;22.50;99.90;;;;;;5065252;28;20044;-86
2023/08/13 12:26:39;;;;;;;6.43;1.38;;;22.60;99.90;;;;;;5043648;28;20083;-87
2023/08/13 12:29:06;;;;;;;5.00;1.10;;;22.60;99.90;;;;;;5068325;28;20036;-87
2023/08/13 12:31:32;;;;;;;7.00;1.30;;;22.70;99.90;;;;;;5068353;28;20048;-88
2023/08/13 12:33:58;;;;;;;7.72;1.20;;;22.70;99.90;;;;;;5070525;28;20040;-89
2023/08/13 12:36:23;;;;;;;4.10;0.80;;;22.70;99.90;;;;;;5067904;28;20586;-89
2023/08/13 12:38:58;;;;;;;5.55;0.90;;;22.70;99.90;;;;;;5055369;28;20097;-91